Terminal Aerodrome Forecast
Issued by NWS

Home | Current Version | Previous Version | Text Only | Print | Product List | Glossary On
Versions: 1 2 3 4 5 6 7 8 9 10 11 12 13 14 15 16 17 18 19 20 21 22 23 24
000
FTUS43 KMKX 170520
TAFUES
TAF
KUES 170520Z 1706/1806 16007KT 5SM -SHRA VCTS SCT008 OVC020CB
     FM170700 17007KT P6SM VCSH SCT008 OVC018
     FM171500 21011KT P6SM OVC040
     FM171800 23014G22KT P6SM VCSH BKN040
     FM172100 24015G24KT P6SM VCSH BKN030
     FM180000 25014KT P6SM BKN025=

USA.gov is the U.S. government's official web portal to all federal, state and local government web resources and services.